Wetterdaten: Woche 16.08.10 - 22.08.10 (KW33)
Datum Zeit Temp. A. Feuchte A. Luftdruck Regen Wind Richtung Taupunkt Windchill Windben
16.08.2010 00:00 21,0 C 73 % 1011,0 hPa 0,0 l/m 1,4 km/h S-SW 15,8 C 21,0 C 8,1 km/h
16.08.2010 01:00 19,8 C 69 % 1011,4 hPa 0,0 l/m 0,1 km/h N 13,9 C 19,8 C 3,2 km/h
16.08.2010 02:00 18,5 C 72 % 1011,6 hPa 0,0 l/m 0,0 km/h N 13,2 C 18,5 C 1,2 km/h
16.08.2010 03:00 17,9 C 73 % 1011,8 hPa 0,0 l/m 0,7 km/h W-SW 12,9 C 17,9 C 5,2 km/h
16.08.2010 04:00 17,9 C 74 % 1012,1 hPa 0,0 l/m 0,5 km/h N 13,1 C 17,9 C 5,6 km/h
16.08.2010 05:00 17,3 C 76 % 1012,3 hPa 0,0 l/m 0,4 km/h N 13,0 C 17,3 C 4,8 km/h
16.08.2010 06:00 16,8 C 78 % 1012,5 hPa 0,0 l/m 0,3 km/h N 12,9 C 16,8 C 3,6 km/h
16.08.2010 07:00 17,0 C 79 % 1012,7 hPa 0,0 l/m 0,4 km/h N 13,3 C 17,0 C 3,2 km/h
16.08.2010 08:00 17,9 C 78 % 1012,7 hPa 0,0 l/m 0,1 km/h N 14,0 C 17,9 C 2,4 km/h
16.08.2010 09:00 19,1 C 75 % 1012,5 hPa 0,0 l/m 0,7 km/h N-NO 14,5 C 19,1 C 3,2 km/h
16.08.2010 10:00 20,3 C 71 % 1012,5 hPa 0,0 l/m 1,3 km/h N-NW 14,8 C 20,3 C 5,2 km/h
16.08.2010 11:00 21,3 C 68 % 1012,3 hPa 0,0 l/m 1,7 km/h NW 15,1 C 21,3 C 6,4 km/h
16.08.2010 12:00 21,4 C 65 % 1012,1 hPa 0,0 l/m 3,3 km/h S 14,5 C 21,4 C 9,3 km/h
16.08.2010 13:00 20,6 C 66 % 1012,3 hPa 0,0 l/m 2,0 km/h SW 14,1 C 20,6 C 8,0 km/h
16.08.2010 14:00 19,7 C 72 % 1012,5 hPa 1,3 l/m 0,8 km/h SW 14,5 C 19,7 C 5,6 km/h
16.08.2010 15:00 18,3 C 75 % 1012,5 hPa 1,3 l/m 2,9 km/h NW 13,7 C 18,3 C 14,1 km/h
16.08.2010 16:00 18,0 C 82 % 1011,6 hPa 0,5 l/m 0,5 km/h N 14,9 C 18,0 C 4,4 km/h
16.08.2010 17:00 20,1 C 76 % 1011,1 hPa 0,0 l/m 1,5 km/h SW 15,7 C 20,1 C 6,4 km/h
16.08.2010 18:00 21,0 C 70 % 1011,2 hPa 0,0 l/m 1,0 km/h O-NO 15,2 C 21,0 C 5,6 km/h
16.08.2010 19:00 19,8 C 63 % 1011,1 hPa 0,0 l/m 0,9 km/h N 12,4 C 19,8 C 7,2 km/h
16.08.2010 20:00 18,5 C 62 % 1011,7 hPa 0,0 l/m 0,7 km/h NW 11,1 C 18,5 C 4,8 km/h
16.08.2010 21:00 17,7 C 67 % 1012,4 hPa 0,0 l/m 0,4 km/h N 11,4 C 17,7 C 4,4 km/h
16.08.2010 22:00 17,7 C 68 % 1012,9 hPa 0,0 l/m 0,4 km/h N 11,7 C 17,7 C 4,4 km/h
16.08.2010 23:00 17,9 C 67 % 1013,5 hPa 0,0 l/m 1,2 km/h SW 11,8 C 17,9 C 5,2 km/h
17.08.2010 00:00 18,0 C 66 % 1014,0 hPa 0,0 l/m 1,2 km/h W 11,5 C 18,0 C 8,8 km/h
17.08.2010 01:00 17,7 C 65 % 1014,1 hPa 0,0 l/m 0,2 km/h N 11,1 C 17,7 C 3,6 km/h
17.08.2010 02:00 17,0 C 68 % 1013,8 hPa 0,0 l/m 0,3 km/h N 11,1 C 17,0 C 2,8 km/h
17.08.2010 03:00 16,8 C 70 % 1013,4 hPa 0,0 l/m 0,5 km/h N 11,2 C 16,8 C 4,8 km/h
17.08.2010 04:00 16,7 C 69 % 1012,9 hPa 0,0 l/m 0,4 km/h N 10,9 C 16,7 C 6,0 km/h
17.08.2010 05:00 16,7 C 69 % 1012,6 hPa 0,0 l/m 0,7 km/h N 10,9 C 16,7 C 6,0 km/h
17.08.2010 06:00 16,5 C 70 % 1012,4 hPa 0,0 l/m 0,2 km/h N 11,0 C 16,5 C 3,2 km/h
17.08.2010 07:00 16,5 C 71 % 1012,8 hPa 0,0 l/m 0,4 km/h S-SW 11,2 C 16,5 C 4,0 km/h
17.08.2010 08:00 16,8 C 72 % 1013,1 hPa 0,0 l/m 0,8 km/h S 11,7 C 16,8 C 4,4 km/h
17.08.2010 09:00 17,2 C 72 % 1013,1 hPa 0,0 l/m 0,1 km/h SW 12,0 C 17,2 C 2,7 km/h
17.08.2010 10:00 18,0 C 71 % 1013,3 hPa 0,0 l/m 0,8 km/h N 12,6 C 18,0 C 6,4 km/h
17.08.2010 11:00 18,4 C 71 % 1013,3 hPa 0,0 l/m 0,0 km/h N 13,0 C 18,4 C 2,4 km/h
17.08.2010 12:00 18,8 C 71 % 1012,8 hPa 0,0 l/m 0,0 km/h N-NW 13,3 C 18,8 C 1,6 km/h
17.08.2010 13:00 19,0 C 70 % 1013,2 hPa 0,0 l/m 2,4 km/h N-NW 13,3 C 19,0 C 8,9 km/h
17.08.2010 14:00 18,8 C 71 % 1012,7 hPa 0,0 l/m 0,8 km/h NW 13,4 C 18,8 C 3,2 km/h
17.08.2010 15:00 18,2 C 75 % 1012,8 hPa 0,5 l/m 3,9 km/h SW 13,6 C 18,2 C 20,4 km/h
17.08.2010 16:00 17,6 C 75 % 1012,3 hPa 0,0 l/m 4,1 km/h S-SW 13,0 C 17,6 C 17,7 km/h
17.08.2010 17:00 17,9 C 71 % 1011,9 hPa 0,3 l/m 2,4 km/h S-SO 12,5 C 17,9 C 13,7 km/h
17.08.2010 18:00 18,2 C 68 % 1011,6 hPa 0,0 l/m 1,7 km/h S 12,1 C 18,2 C 8,4 km/h
17.08.2010 19:00 18,5 C 67 % 1011,5 hPa 0,0 l/m 0,4 km/h N 12,2 C 18,5 C 4,4 km/h
17.08.2010 20:00 18,2 C 63 % 1011,7 hPa 0,0 l/m 0,6 km/h N 11,1 C 18,2 C 8,4 km/h
17.08.2010 21:00 18,2 C 65 % 1012,3 hPa 0,0 l/m 0,1 km/h N 11,6 C 18,2 C 2,0 km/h
17.08.2010 22:00 17,6 C 70 % 1012,3 hPa 0,0 l/m 0,0 km/h N 12,1 C 17,6 C 0,4 km/h
17.08.2010 23:00 17,0 C 75 % 1012,1 hPa 0,0 l/m 0,0 km/h N 12,5 C 17,0 C 0,8 km/h
18.08.2010 00:00 16,4 C 78 % 1012,4 hPa 0,0 l/m 0,1 km/h N 12,5 C 16,4 C 2,0 km/h
18.08.2010 01:00 16,7 C 68 % 1012,3 hPa 0,0 l/m 2,4 km/h W 10,7 C 16,7 C 13,3 km/h
18.08.2010 02:00 17,8 C 60 % 1012,3 hPa 0,0 l/m 3,3 km/h S-SW 9,9 C 17,8 C 16,9 km/h
18.08.2010 03:00 17,0 C 64 % 1012,1 hPa 0,0 l/m 0,8 km/h SW 10,0 C 17,0 C 6,0 km/h
18.08.2010 04:00 16,0 C 68 % 1012,1 hPa 0,0 l/m 0,2 km/h N 10,0 C 16,0 C 3,2 km/h
18.08.2010 05:00 15,3 C 71 % 1012,0 hPa 0,0 l/m 0,0 km/h N 9,9 C 15,3 C 0,4 km/h
18.08.2010 06:00 14,4 C 75 % 1012,4 hPa 0,0 l/m 0,0 km/h N 10,0 C 14,4 C 1,2 km/h
18.08.2010 07:00 14,6 C 76 % 1012,8 hPa 0,0 l/m 0,7 km/h S 10,4 C 14,6 C 3,6 km/h
18.08.2010 08:00 16,5 C 69 % 1012,5 hPa 0,0 l/m 1,2 km/h S 10,8 C 16,5 C 6,4 km/h
18.08.2010 09:00 18,6 C 63 % 1012,5 hPa 0,0 l/m 0,8 km/h S-SO 11,4 C 18,6 C 5,6 km/h
18.08.2010 10:00 19,7 C 61 % 1012,0 hPa 0,0 l/m 0,1 km/h N 12,0 C 19,7 C 2,0 km/h
18.08.2010 11:00 22,1 C 58 % 1011,6 hPa 0,0 l/m 0,6 km/h N 13,4 C 22,1 C 5,6 km/h
18.08.2010 12:00 24,1 C 52 % 1011,2 hPa 0,0 l/m 0,8 km/h W-SW 13,5 C 24,1 C 6,4 km/h
18.08.2010 13:00 24,5 C 53 % 1010,8 hPa 0,0 l/m 0,6 km/h N 14,3 C 24,5 C 4,0 km/h
18.08.2010 14:00 24,3 C 53 % 1010,7 hPa 0,0 l/m 0,6 km/h S-SW 14,2 C 24,3 C 3,6 km/h
18.08.2010 15:00 23,8 C 50 % 1010,8 hPa 0,0 l/m 2,3 km/h NW 12,7 C 23,8 C 5,6 km/h
18.08.2010 16:00 22,9 C 53 % 1010,8 hPa 0,0 l/m 0,7 km/h N-NW 12,9 C 22,9 C 4,0 km/h
18.08.2010 17:00 22,3 C 55 % 1010,8 hPa 0,0 l/m 0,7 km/h S 12,8 C 22,3 C 4,0 km/h
18.08.2010 18:00 22,1 C 58 % 1010,6 hPa 0,0 l/m 0,4 km/h N 13,4 C 22,1 C 4,0 km/h
18.08.2010 19:00 21,2 C 65 % 1010,6 hPa 0,0 l/m 0,0 km/h N 14,3 C 21,2 C 0,8 km/h
18.08.2010 20:00 20,1 C 67 % 1010,7 hPa 0,0 l/m 0,1 km/h N 13,8 C 20,1 C 2,4 km/h
18.08.2010 21:00 19,6 C 69 % 1011,2 hPa 0,0 l/m 0,0 km/h N 13,7 C 19,6 C 0,8 km/h
18.08.2010 22:00 18,9 C 70 % 1011,4 hPa 0,0 l/m 0,0 km/h N 13,3 C 18,9 C 1,2 km/h
18.08.2010 23:00 18,4 C 71 % 1011,5 hPa 0,0 l/m 0,1 km/h N 13,0 C 18,4 C 2,0 km/h
19.08.2010 00:00 17,8 C 73 % 1011,9 hPa 0,0 l/m 0,0 km/h N 12,8 C 17,8 C 0,0 km/h
19.08.2010 01:00 17,5 C 75 % 1012,2 hPa 0,0 l/m 0,0 km/h N 13,0 C 17,5 C 0,0 km/h
19.08.2010 02:00 17,2 C 80 % 1012,3 hPa 0,0 l/m 0,0 km/h N 13,6 C 17,2 C 0,0 km/h
19.08.2010 03:00 16,8 C 82 % 1012,3 hPa 0,0 l/m 0,0 km/h N 13,7 C 16,8 C 0,4 km/h
19.08.2010 04:00 16,2 C 83 % 1012,5 hPa 0,0 l/m 0,0 km/h N 13,3 C 16,2 C 0,0 km/h
19.08.2010 05:00 15,2 C 83 % 1013,0 hPa 0,0 l/m 0,0 km/h N 12,4 C 15,2 C 0,4 km/h
19.08.2010 06:00 15,7 C 84 % 1013,4 hPa 0,0 l/m 1,4 km/h S-SO 12,9 C 15,7 C 9,3 km/h
19.08.2010 07:00 18,1 C 74 % 1014,1 hPa 0,0 l/m 1,9 km/h S 13,4 C 18,1 C 10,9 km/h
19.08.2010 08:00 18,8 C 72 % 1014,6 hPa 0,0 l/m 1,4 km/h O 13,7 C 18,8 C 9,3 km/h
19.08.2010 09:00 19,7 C 69 % 1014,8 hPa 0,0 l/m 4,7 km/h S-SW 13,8 C 19,7 C 20,1 km/h
19.08.2010 10:00 20,6 C 67 % 1015,3 hPa 0,0 l/m 3,8 km/h SO 14,2 C 20,6 C 12,9 km/h
19.08.2010 11:00 21,6 C 63 % 1015,6 hPa 0,0 l/m 4,4 km/h SW 14,2 C 21,6 C 19,3 km/h
19.08.2010 12:00 22,5 C 60 % 1015,8 hPa 0,0 l/m 3,6 km/h W 14,2 C 22,5 C 18,1 km/h
19.08.2010 13:00 24,8 C 54 % 1015,4 hPa 0,0 l/m 4,3 km/h N 14,8 C 24,8 C 16,5 km/h
19.08.2010 14:00 24,1 C 53 % 1015,8 hPa 0,0 l/m 5,1 km/h N-NO 14,0 C 24,1 C 17,3 km/h
19.08.2010 15:00 24,7 C 53 % 1015,7 hPa 0,0 l/m 3,6 km/h NW 14,3 C 24,7 C 14,9 km/h
19.08.2010 16:00 24,7 C 52 % 1015,8 hPa 0,0 l/m 4,7 km/h W 14,2 C 24,6 C 18,1 km/h
19.08.2010 17:00 25,7 C 49 % 1015,8 hPa 0,0 l/m 3,3 km/h SW 14,2 C 25,7 C 11,7 km/h
19.08.2010 18:00 24,5 C 52 % 1016,0 hPa 0,0 l/m 2,7 km/h SO 13,9 C 24,5 C 12,5 km/h
19.08.2010 19:00 23,1 C 57 % 1016,4 hPa 0,0 l/m 1,8 km/h S-SW 14,1 C 23,1 C 9,6 km/h
19.08.2010 20:00 21,8 C 61 % 1017,2 hPa 0,0 l/m 0,4 km/h N 13,9 C 21,8 C 5,2 km/h
19.08.2010 21:00 20,5 C 65 % 1018,1 hPa 0,0 l/m 0,2 km/h N 13,7 C 20,5 C 2,8 km/h
19.08.2010 22:00 19,5 C 67 % 1018,8 hPa 0,0 l/m 0,3 km/h N 13,3 C 19,5 C 2,4 km/h
19.08.2010 23:00 18,7 C 71 % 1019,5 hPa 0,0 l/m 0,4 km/h N 13,2 C 18,7 C 2,4 km/h
20.08.2010 00:00 17,6 C 74 % 1020,3 hPa 0,0 l/m 0,0 km/h N 12,9 C 17,6 C 0,0 km/h
20.08.2010 01:00 16,1 C 78 % 1020,6 hPa 0,0 l/m 0,0 km/h N 12,4 C 16,1 C 0,0 km/h
20.08.2010 02:00 15,1 C 82 % 1020,8 hPa 0,0 l/m 0,0 km/h N 12,0 C 15,1 C 0,4 km/h
20.08.2010 03:00 14,3 C 83 % 1021,1 hPa 0,0 l/m 0,0 km/h N 11,5 C 14,3 C 0,4 km/h
20.08.2010 04:00 13,9 C 85 % 1021,4 hPa 0,0 l/m 0,0 km/h N 11,4 C 13,9 C 1,6 km/h
20.08.2010 05:00 13,8 C 85 % 1021,5 hPa 0,0 l/m 0,1 km/h N 11,3 C 13,8 C 2,0 km/h
20.08.2010 06:00 13,7 C 85 % 1022,0 hPa 0,0 l/m 0,1 km/h N 11,2 C 13,7 C 2,0 km/h
20.08.2010 07:00 14,1 C 85 % 1022,5 hPa 0,0 l/m 0,0 km/h N 11,6 C 14,1 C 2,8 km/h
20.08.2010 08:00 15,2 C 85 % 1022,8 hPa 0,0 l/m 0,0 km/h N 12,6 C 15,2 C 0,4 km/h
20.08.2010 09:00 17,5 C 79 % 1023,1 hPa 0,0 l/m 0,1 km/h N 13,8 C 17,5 C 1,2 km/h
20.08.2010 10:00 20,0 C 61 % 1023,4 hPa 0,0 l/m 0,9 km/h O 12,2 C 20,0 C 4,0 km/h
20.08.2010 11:00 21,8 C 58 % 1023,2 hPa 0,0 l/m 0,9 km/h O 13,1 C 21,8 C 5,2 km/h
20.08.2010 12:00 22,3 C 52 % 1023,1 hPa 0,0 l/m 1,0 km/h S-SW 11,9 C 22,3 C 7,2 km/h
20.08.2010 13:00 22,6 C 48 % 1023,0 hPa 0,0 l/m 1,1 km/h O 11,1 C 22,6 C 7,6 km/h
20.08.2010 14:00 23,2 C 53 % 1022,5 hPa 0,0 l/m 1,2 km/h N-NO 13,0 C 23,2 C 5,9 km/h
20.08.2010 15:00 23,0 C 54 % 1022,2 hPa 0,0 l/m 1,5 km/h O 13,3 C 23,0 C 6,4 km/h
20.08.2010 16:00 22,9 C 55 % 1021,8 hPa 0,0 l/m 1,2 km/h O 13,4 C 22,9 C 4,4 km/h
20.08.2010 17:00 22,9 C 57 % 1021,6 hPa 0,0 l/m 1,0 km/h O 14,0 C 22,9 C 4,4 km/h
20.08.2010 18:00 22,8 C 60 % 1021,4 hPa 0,0 l/m 0,7 km/h N 14,6 C 22,8 C 3,6 km/h
20.08.2010 19:00 22,1 C 64 % 1021,5 hPa 0,0 l/m 0,1 km/h N 14,9 C 22,1 C 1,6 km/h
20.08.2010 20:00 20,8 C 69 % 1022,0 hPa 0,0 l/m 0,0 km/h N 14,8 C 20,8 C 0,0 km/h
20.08.2010 21:00 19,2 C 75 % 1022,5 hPa 0,0 l/m 0,0 km/h N 14,6 C 19,2 C 0,4 km/h
20.08.2010 22:00 18,2 C 78 % 1022,8 hPa 0,0 l/m 0,0 km/h N 14,2 C 18,2 C 0,0 km/h
20.08.2010 23:00 17,0 C 82 % 1023,3 hPa 0,0 l/m 0,0 km/h N 13,8 C 17,0 C 0,0 km/h
21.08.2010 00:00 16,0 C 84 % 1023,6 hPa 0,0 l/m 0,0 km/h N 13,2 C 16,0 C 0,0 km/h
21.08.2010 01:00 15,4 C 85 % 1023,6 hPa 0,0 l/m 0,0 km/h N 12,9 C 15,4 C 0,0 km/h
21.08.2010 02:00 15,0 C 86 % 1023,8 hPa 0,0 l/m 0,0 km/h N 12,7 C 15,0 C 0,4 km/h
21.08.2010 03:00 14,7 C 87 % 1024,1 hPa 0,0 l/m 0,0 km/h N 12,5 C 14,7 C 0,4 km/h
21.08.2010 04:00 14,6 C 87 % 1024,0 hPa 0,0 l/m 0,1 km/h N 12,5 C 14,6 C 2,4 km/h
21.08.2010 05:00 14,5 C 87 % 1024,3 hPa 0,0 l/m 0,1 km/h N 12,3 C 14,5 C 2,0 km/h
21.08.2010 06:00 14,3 C 87 % 1024,8 hPa 0,0 l/m 0,1 km/h N 12,1 C 14,3 C 2,0 km/h
21.08.2010 07:00 14,6 C 88 % 1025,3 hPa 0,0 l/m 0,0 km/h N 12,7 C 14,6 C 1,6 km/h
21.08.2010 08:00 16,0 C 88 % 1025,6 hPa 0,0 l/m 0,0 km/h N 13,9 C 16,0 C 1,2 km/h
21.08.2010 09:00 17,6 C 81 % 1025,7 hPa 0,0 l/m 0,0 km/h N 14,3 C 17,6 C 1,2 km/h
21.08.2010 10:00 20,0 C 70 % 1025,6 hPa 0,0 l/m 0,2 km/h N 14,3 C 20,0 C 2,0 km/h
21.08.2010 11:00 23,3 C 63 % 1025,3 hPa 0,0 l/m 0,2 km/h N 15,9 C 23,3 C 2,8 km/h
21.08.2010 12:00 26,0 C 55 % 1024,9 hPa 0,0 l/m 0,4 km/h N 16,2 C 26,0 C 4,0 km/h
21.08.2010 13:00 26,4 C 54 % 1024,4 hPa 0,0 l/m 0,6 km/h O-NO 16,2 C 26,4 C 3,6 km/h
21.08.2010 14:00 26,8 C 53 % 1024,0 hPa 0,0 l/m 1,1 km/h NO 16,2 C 26,8 C 5,2 km/h
21.08.2010 15:00 27,4 C 51 % 1023,6 hPa 0,0 l/m 1,0 km/h O-NO 16,3 C 27,4 C 4,4 km/h
21.08.2010 16:00 28,1 C 50 % 1023,1 hPa 0,0 l/m 0,8 km/h NO 16,7 C 28,1 C 4,4 km/h
21.08.2010 17:00 28,3 C 50 % 1022,7 hPa 0,0 l/m 0,4 km/h N 16,7 C 28,3 C 3,6 km/h
21.08.2010 18:00 27,4 C 51 % 1022,5 hPa 0,0 l/m 0,1 km/h N 16,4 C 27,4 C 2,4 km/h
21.08.2010 19:00 25,6 C 59 % 1022,3 hPa 0,0 l/m 0,0 km/h N 16,9 C 25,6 C 0,0 km/h
21.08.2010 20:00 23,3 C 66 % 1022,7 hPa 0,0 l/m 0,0 km/h N 16,6 C 23,3 C 0,0 km/h
21.08.2010 21:00 21,1 C 74 % 1022,8 hPa 0,0 l/m 0,0 km/h N 16,3 C 21,1 C 0,0 km/h
21.08.2010 22:00 19,8 C 79 % 1022,8 hPa 0,0 l/m 0,0 km/h N 16,0 C 19,8 C 0,0 km/h
21.08.2010 23:00 19,0 C 80 % 1022,7 hPa 0,0 l/m 0,0 km/h N 15,5 C 19,0 C 0,0 km/h
22.08.2010 00:00 18,0 C 83 % 1022,4 hPa 0,0 l/m 0,0 km/h N 15,1 C 18,0 C 0,0 km/h
22.08.2010 01:00 17,6 C 85 % 1022,1 hPa 0,0 l/m 0,0 km/h N 15,0 C 17,6 C 1,6 km/h
22.08.2010 02:00 17,4 C 85 % 1021,8 hPa 0,0 l/m 0,0 km/h N 14,8 C 17,4 C 2,0 km/h
22.08.2010 03:00 17,2 C 85 % 1021,6 hPa 0,0 l/m 0,0 km/h N 14,7 C 17,2 C 0,4 km/h
22.08.2010 04:00 16,8 C 86 % 1021,3 hPa 0,0 l/m 0,0 km/h N 14,4 C 16,8 C 0,4 km/h
22.08.2010 05:00 16,1 C 86 % 1021,0 hPa 0,0 l/m 0,0 km/h N 13,8 C 16,1 C 1,6 km/h
22.08.2010 06:00 16,1 C 87 % 1021,1 hPa 0,0 l/m 0,0 km/h N 14,0 C 16,1 C 0,4 km/h
22.08.2010 07:00 16,8 C 87 % 1021,3 hPa 0,0 l/m 0,0 km/h N 14,6 C 16,8 C 0,4 km/h
22.08.2010 08:00 17,8 C 87 % 1021,4 hPa 0,0 l/m 0,0 km/h N 15,6 C 17,8 C 1,2 km/h
22.08.2010 09:00 19,3 C 87 % 1021,2 hPa 0,0 l/m 0,1 km/h N 17,1 C 19,3 C 1,6 km/h
22.08.2010 10:00 21,5 C 81 % 1020,8 hPa 0,0 l/m 0,4 km/h N 18,0 C 21,5 C 3,6 km/h
22.08.2010 11:00 25,1 C 70 % 1020,3 hPa 0,0 l/m 0,5 km/h N 19,1 C 25,1 C 4,4 km/h
22.08.2010 12:00 28,3 C 60 % 1019,4 hPa 0,0 l/m 0,4 km/h S 19,6 C 28,3 C 4,0 km/h
22.08.2010 13:00 29,0 C 56 % 1018,4 hPa 0,0 l/m 1,2 km/h SO 19,2 C 29,0 C 4,8 km/h
22.08.2010 14:00 29,7 C 55 % 1017,7 hPa 0,0 l/m 1,7 km/h O-SO 19,5 C 29,7 C 5,6 km/h
22.08.2010 15:00 30,6 C 50 % 1016,9 hPa 0,0 l/m 1,2 km/h O 19,0 C 30,6 C 5,6 km/h
22.08.2010 16:00 29,8 C 52 % 1016,2 hPa 0,0 l/m 1,7 km/h O 18,8 C 29,8 C 5,2 km/h
22.08.2010 17:00 28,9 C 57 % 1015,5 hPa 0,0 l/m 1,7 km/h O 19,4 C 28,9 C 5,6 km/h
22.08.2010 18:00 28,3 C 58 % 1015,1 hPa 0,0 l/m 1,0 km/h O-SO 19,1 C 28,3 C 5,6 km/h
22.08.2010 19:00 26,9 C 61 % 1014,7 hPa 0,0 l/m 0,3 km/h N 18,5 C 26,9 C 4,4 km/h
22.08.2010 20:00 25,4 C 63 % 1014,7 hPa 0,0 l/m 0,1 km/h N 17,8 C 25,4 C 2,8 km/h
22.08.2010 21:00 24,1 C 67 % 1014,3 hPa 0,0 l/m 0,1 km/h N 17,5 C 24,1 C 2,4 km/h
22.08.2010 22:00 22,6 C 72 % 1013,9 hPa 0,0 l/m 0,0 km/h N 17,2 C 22,6 C 2,0 km/h
22.08.2010 23:00 21,2 C 77 % 1013,5 hPa 0,0 l/m 0,0 km/h N 16,9 C 21,2 C 1,6 km/h
Min-Datum _ 20.08.10 20.08.10 18.08.10 - 16.08.10 - 18.08.10 20.08.10 16.08.10
_ Min-Zeit 05:30 13:15 18:30 - 02:00 - 02:00 05:30 02:00
Minimum _ 13,7 C 45 % 1010,5 hPa - 0,0 km/h - 9,7 C 13,7 C 0,0 km/h
Max-Datum _ 22.08.10 21.08.10 21.08.10 16.08.10 19.08.10 - 22.08.10 22.08.10 17.08.10
_ Max-Zeit 15:45 07:00 09:00 14:15 16:45 - 12:15 15:45 15:30
Maximum _ 31,0 C 88 % 1025,7 hPa 1,3 l/m 8,2 km/h
W
- 20,3 C 30,9 C 27,4 km/h
SW
Durchschnitt _ 19,8 C 69 % 1016,6 hPa #3,9 l/m 0,8 km/h SW 13,8 C 19,8 C 4,6 km/h